sensor_id;sensor_type;location;lat;lon;timestamp;temperature;humidity
18365;DHT22;9309;52.126;11.616;2023-02-26T00:01:56;-0.40;81.70
18365;DHT22;9309;52.126;11.616;2023-02-26T00:04:27;-0.40;81.30
18365;DHT22;9309;52.126;11.616;2023-02-26T00:06:53;-0.50;82.20
18365;DHT22;9309;52.126;11.616;2023-02-26T00:09:22;-0.30;81.30
18365;DHT22;9309;52.126;11.616;2023-02-26T00:11:49;-0.40;82.00
18365;DHT22;9309;52.126;11.616;2023-02-26T00:14:16;-0.30;81.60
18365;DHT22;9309;52.126;11.616;2023-02-26T00:16:45;-0.40;82.00
18365;DHT22;9309;52.126;11.616;2023-02-26T00:19:29;-0.40;82.50
18365;DHT22;9309;52.126;11.616;2023-02-26T00:21:56;-0.30;81.60
18365;DHT22;9309;52.126;11.616;2023-02-26T00:24:23;-0.40;81.50
18365;DHT22;9309;52.126;11.616;2023-02-26T00:26:50;-0.40;82.50
18365;DHT22;9309;52.126;11.616;2023-02-26T00:29:17;-0.50;82.50
18365;DHT22;9309;52.126;11.616;2023-02-26T00:31:44;-0.50;83.00
18365;DHT22;9309;52.126;11.616;2023-02-26T00:34:11;-0.50;83.40
18365;DHT22;9309;52.126;11.616;2023-02-26T00:36:43;-0.50;83.00
18365;DHT22;9309;52.126;11.616;2023-02-26T00:39:27;-0.50;82.60
18365;DHT22;9309;52.126;11.616;2023-02-26T00:41:56;-0.50;82.80
18365;DHT22;9309;52.126;11.616;2023-02-26T00:44:24;-0.60;83.00
18365;DHT22;9309;52.126;11.616;2023-02-26T00:46:55;-0.50;82.60
18365;DHT22;9309;52.126;11.616;2023-02-26T00:49:30;-0.60;83.10
18365;DHT22;9309;52.126;11.616;2023-02-26T00:52:12;-0.60;83.80
18365;DHT22;9309;52.126;11.616;2023-02-26T00:54:39;-0.50;83.60
18365;DHT22;9309;52.126;11.616;2023-02-26T00:57:06;-0.40;83.00
18365;DHT22;9309;52.126;11.616;2023-02-26T00:59:33;-0.40;82.60
18365;DHT22;9309;52.126;11.616;2023-02-26T01:02:00;-0.40;82.90
18365;DHT22;9309;52.126;11.616;2023-02-26T01:04:27;-0.60;83.10
18365;DHT22;9309;52.126;11.616;2023-02-26T01:06:56;-0.70;82.90
18365;DHT22;9309;52.126;11.616;2023-02-26T01:09:26;-0.70;84.10
18365;DHT22;9309;52.126;11.616;2023-02-26T01:11:54;-0.70;84.00
18365;DHT22;9309;52.126;11.616;2023-02-26T01:14:22;-0.80;83.90
18365;DHT22;9309;52.126;11.616;2023-02-26T01:16:56;-0.70;83.90
18365;DHT22;9309;52.126;11.616;2023-02-26T01:19:30;-0.70;83.90
18365;DHT22;9309;52.126;11.616;2023-02-26T01:22:04;-0.90;84.10
18365;DHT22;9309;52.126;11.616;2023-02-26T01:24:35;-0.80;85.20
18365;DHT22;9309;52.126;11.616;2023-02-26T01:27:03;-0.80;84.60
18365;DHT22;9309;52.126;11.616;2023-02-26T01:29:30;-0.80;84.60
18365;DHT22;9309;52.126;11.616;2023-02-26T01:32:03;-0.80;84.50
18365;DHT22;9309;52.126;11.616;2023-02-26T01:34:34;-0.70;84.80
18365;DHT22;9309;52.126;11.616;2023-02-26T01:37:13;-0.70;83.70
18365;DHT22;9309;52.126;11.616;2023-02-26T01:39:49;-0.50;84.10
18365;DHT22;9309;52.126;11.616;2023-02-26T01:42:20;-0.50;83.30
18365;DHT22;9309;52.126;11.616;2023-02-26T01:44:54;-0.50;83.60
18365;DHT22;9309;52.126;11.616;2023-02-26T01:47:28;-0.50;83.20
18365;DHT22;9309;52.126;11.616;2023-02-26T01:49:58;-0.50;83.40
18365;DHT22;9309;52.126;11.616;2023-02-26T01:55:29;-0.60;84.10
18365;DHT22;9309;52.126;11.616;2023-02-26T01:57:58;-0.60;84.10
18365;DHT22;9309;52.126;11.616;2023-02-26T02:00:25;-0.60;84.40
18365;DHT22;9309;52.126;11.616;2023-02-26T02:02:52;-0.50;83.10
18365;DHT22;9309;52.126;11.616;2023-02-26T02:05:23;-0.60;83.80
18365;DHT22;9309;52.126;11.616;2023-02-26T02:07:51;-0.60;84.50
18365;DHT22;9309;52.126;11.616;2023-02-26T02:10:18;-0.60;84.80
18365;DHT22;9309;52.126;11.616;2023-02-26T02:12:50;-0.70;84.00
18365;DHT22;9309;52.126;11.616;2023-02-26T02:15:24;-0.70;84.30
18365;DHT22;9309;52.126;11.616;2023-02-26T02:18:00;-0.70;84.70
18365;DHT22;9309;52.126;11.616;2023-02-26T02:21:07;-0.80;85.10
18365;DHT22;9309;52.126;11.616;2023-02-26T02:23:43;-0.70;84.40
18365;DHT22;9309;52.126;11.616;2023-02-26T02:26:33;-0.80;85.10
18365;DHT22;9309;52.126;11.616;2023-02-26T02:32:10;-0.70;84.90
18365;DHT22;9309;52.126;11.616;2023-02-26T02:34:43;-0.70;84.60
18365;DHT22;9309;52.126;11.616;2023-02-26T02:37:13;-0.80;85.20
18365;DHT22;9309;52.126;11.616;2023-02-26T02:39:45;-0.80;85.10
18365;DHT22;9309;52.126;11.616;2023-02-26T02:42:21;-0.80;85.20
18365;DHT22;9309;52.126;11.616;2023-02-26T02:44:53;-0.80;85.10
18365;DHT22;9309;52.126;11.616;2023-02-26T02:47:24;-0.80;84.70
18365;DHT22;9309;52.126;11.616;2023-02-26T02:49:58;-0.80;84.20
18365;DHT22;9309;52.126;11.616;2023-02-26T02:52:29;-0.80;84.80
18365;DHT22;9309;52.126;11.616;2023-02-26T02:55:01;-0.80;84.70
18365;DHT22;9309;52.126;11.616;2023-02-26T02:57:32;-0.80;85.00
18365;DHT22;9309;52.126;11.616;2023-02-26T03:00:02;-0.80;84.30
18365;DHT22;9309;52.126;11.616;2023-02-26T03:02:36;-0.90;85.00
18365;DHT22;9309;52.126;11.616;2023-02-26T03:05:06;-0.90;85.10
18365;DHT22;9309;52.126;11.616;2023-02-26T03:07:37;-0.90;85.60
18365;DHT22;9309;52.126;11.616;2023-02-26T03:10:06;-0.90;85.90
18365;DHT22;9309;52.126;11.616;2023-02-26T03:12:33;-0.80;85.50
18365;DHT22;9309;52.126;11.616;2023-02-26T03:15:01;-0.80;85.50
18365;DHT22;9309;52.126;11.616;2023-02-26T03:17:35;-0.80;85.90
18365;DHT22;9309;52.126;11.616;2023-02-26T03:20:12;-0.80;85.50
18365;DHT22;9309;52.126;11.616;2023-02-26T03:22:48;-0.70;85.30
18365;DHT22;9309;52.126;11.616;2023-02-26T03:25:24;-0.70;85.30
18365;DHT22;9309;52.126;11.616;2023-02-26T03:27:58;-0.80;85.40
18365;DHT22;9309;52.126;11.616;2023-02-26T03:30:33;-0.80;85.60
18365;DHT22;9309;52.126;11.616;2023-02-26T03:33:06;-0.80;85.50
18365;DHT22;9309;52.126;11.616;2023-02-26T03:35:41;-0.70;85.60
18365;DHT22;9309;52.126;11.616;2023-02-26T03:38:14;-0.60;84.40
18365;DHT22;9309;52.126;11.616;2023-02-26T03:40:46;-0.70;85.00
18365;DHT22;9309;52.126;11.616;2023-02-26T03:43:17;-0.60;84.80
18365;DHT22;9309;52.126;11.616;2023-02-26T03:45:48;-0.70;84.50
18365;DHT22;9309;52.126;11.616;2023-02-26T03:48:21;-0.80;85.40
18365;DHT22;9309;52.126;11.616;2023-02-26T03:50:50;-0.70;85.40
18365;DHT22;9309;52.126;11.616;2023-02-26T03:53:29;-0.60;84.30
18365;DHT22;9309;52.126;11.616;2023-02-26T03:56:12;-0.70;84.30
18365;DHT22;9309;52.126;11.616;2023-02-26T03:59:10;-0.70;84.50
18365;DHT22;9309;52.126;11.616;2023-02-26T04:01:48;-0.70;84.90
18365;DHT22;9309;52.126;11.616;2023-02-26T04:04:22;-0.60;84.40
18365;DHT22;9309;52.126;11.616;2023-02-26T04:06:51;-0.70;84.40
18365;DHT22;9309;52.126;11.616;2023-02-26T04:09:20;-0.60;84.40
18365;DHT22;9309;52.126;11.616;2023-02-26T04:11:48;-0.60;83.60
18365;DHT22;9309;52.126;11.616;2023-02-26T04:14:15;-0.50;83.70
18365;DHT22;9309;52.126;11.616;2023-02-26T04:16:43;-0.40;83.20
18365;DHT22;9309;52.126;11.616;2023-02-26T04:19:10;-0.50;83.20
18365;DHT22;9309;52.126;11.616;2023-02-26T04:21:39;-0.50;83.00
18365;DHT22;9309;52.126;11.616;2023-02-26T04:24:06;-0.50;82.90
18365;DHT22;9309;52.126;11.616;2023-02-26T04:26:33;-0.50;83.00
18365;DHT22;9309;52.126;11.616;2023-02-26T04:29:00;-0.40;82.50
18365;DHT22;9309;52.126;11.616;2023-02-26T04:31:27;-0.50;82.90
18365;DHT22;9309;52.126;11.616;2023-02-26T04:33:54;-0.40;82.20
18365;DHT22;9309;52.126;11.616;2023-02-26T04:36:21;-0.40;81.80
18365;DHT22;9309;52.126;11.616;2023-02-26T04:38:49;-0.30;81.70
18365;DHT22;9309;52.126;11.616;2023-02-26T04:41:15;-0.20;80.60
18365;DHT22;9309;52.126;11.616;2023-02-26T04:43:44;-0.20;80.40
18365;DHT22;9309;52.126;11.616;2023-02-26T04:46:18;-0.30;79.50
18365;DHT22;9309;52.126;11.616;2023-02-26T04:48:45;-0.30;80.00
18365;DHT22;9309;52.126;11.616;2023-02-26T04:51:12;-0.30;80.30
18365;DHT22;9309;52.126;11.616;2023-02-26T04:53:39;-0.40;79.50
18365;DHT22;9309;52.126;11.616;2023-02-26T04:56:07;-0.50;80.30
18365;DHT22;9309;52.126;11.616;2023-02-26T04:58:35;-0.40;80.10
18365;DHT22;9309;52.126;11.616;2023-02-26T05:01:07;-0.40;80.20
18365;DHT22;9309;52.126;11.616;2023-02-26T05:03:34;-0.50;80.50
18365;DHT22;9309;52.126;11.616;2023-02-26T05:06:01;-0.40;79.50
18365;DHT22;9309;52.126;11.616;2023-02-26T05:08:27;-0.50;80.40
18365;DHT22;9309;52.126;11.616;2023-02-26T05:10:54;-0.40;80.00
18365;DHT22;9309;52.126;11.616;2023-02-26T05:13:22;-0.40;80.40
18365;DHT22;9309;52.126;11.616;2023-02-26T05:15:49;-0.40;79.70
18365;DHT22;9309;52.126;11.616;2023-02-26T05:18:15;-0.30;79.60
18365;DHT22;9309;52.126;11.616;2023-02-26T05:20:42;-0.30;79.40
18365;DHT22;9309;52.126;11.616;2023-02-26T05:23:09;-0.40;79.20
18365;DHT22;9309;52.126;11.616;2023-02-26T05:25:38;-0.30;78.70
18365;DHT22;9309;52.126;11.616;2023-02-26T05:28:04;-0.30;78.40
18365;DHT22;9309;52.126;11.616;2023-02-26T05:30:32;-0.30;78.70
18365;DHT22;9309;52.126;11.616;2023-02-26T05:32:59;-0.20;78.40
18365;DHT22;9309;52.126;11.616;2023-02-26T05:35:25;-0.20;78.40
18365;DHT22;9309;52.126;11.616;2023-02-26T05:37:52;-0.30;78.80
18365;DHT22;9309;52.126;11.616;2023-02-26T05:40:19;-0.20;78.80
18365;DHT22;9309;52.126;11.616;2023-02-26T05:42:45;-0.30;78.50
18365;DHT22;9309;52.126;11.616;2023-02-26T05:45:12;-0.30;78.70
18365;DHT22;9309;52.126;11.616;2023-02-26T05:47:40;-0.30;78.20
18365;DHT22;9309;52.126;11.616;2023-02-26T05:50:08;-0.30;79.40
18365;DHT22;9309;52.126;11.616;2023-02-26T05:52:35;-0.30;78.30
18365;DHT22;9309;52.126;11.616;2023-02-26T05:55:02;-0.30;78.00
18365;DHT22;9309;52.126;11.616;2023-02-26T05:57:29;-0.20;77.70
18365;DHT22;9309;52.126;11.616;2023-02-26T05:59:55;-0.20;77.80
18365;DHT22;9309;52.126;11.616;2023-02-26T06:02:22;-0.10;76.90
18365;DHT22;9309;52.126;11.616;2023-02-26T06:04:50;-0.20;76.60
18365;DHT22;9309;52.126;11.616;2023-02-26T06:07:16;0.00;76.20
18365;DHT22;9309;52.126;11.616;2023-02-26T06:09:44;-0.10;76.00
18365;DHT22;9309;52.126;11.616;2023-02-26T06:12:10;-0.20;76.20
18365;DHT22;9309;52.126;11.616;2023-02-26T06:14:37;-0.20;75.80
18365;DHT22;9309;52.126;11.616;2023-02-26T06:17:04;-0.20;76.50
18365;DHT22;9309;52.126;11.616;2023-02-26T06:19:31;-0.20;76.60
18365;DHT22;9309;52.126;11.616;2023-02-26T06:22:01;-0.20;75.90
18365;DHT22;9309;52.126;11.616;2023-02-26T06:24:28;-0.10;75.00
18365;DHT22;9309;52.126;11.616;2023-02-26T06:26:55;-0.20;75.90
18365;DHT22;9309;52.126;11.616;2023-02-26T06:29:21;-0.30;75.90
18365;DHT22;9309;52.126;11.616;2023-02-26T06:31:48;-0.30;75.30
18365;DHT22;9309;52.126;11.616;2023-02-26T06:34:15;-0.30;75.60
18365;DHT22;9309;52.126;11.616;2023-02-26T06:36:42;-0.40;75.60
18365;DHT22;9309;52.126;11.616;2023-02-26T06:39:10;-0.40;76.40
18365;DHT22;9309;52.126;11.616;2023-02-26T06:41:37;-0.50;76.10
18365;DHT22;9309;52.126;11.616;2023-02-26T06:44:03;-0.40;76.20
18365;DHT22;9309;52.126;11.616;2023-02-26T06:46:30;-0.50;76.00
18365;DHT22;9309;52.126;11.616;2023-02-26T06:48:57;-0.60;76.30
18365;DHT22;9309;52.126;11.616;2023-02-26T06:51:24;-0.70;77.10
18365;DHT22;9309;52.126;11.616;2023-02-26T06:53:51;-0.70;76.80
18365;DHT22;9309;52.126;11.616;2023-02-26T06:56:19;-0.70;76.80
18365;DHT22;9309;52.126;11.616;2023-02-26T06:58:46;-0.60;76.50
18365;DHT22;9309;52.126;11.616;2023-02-26T07:01:12;-0.70;76.60
18365;DHT22;9309;52.126;11.616;2023-02-26T07:03:39;-0.70;76.20
18365;DHT22;9309;52.126;11.616;2023-02-26T07:06:06;-0.70;77.00
18365;DHT22;9309;52.126;11.616;2023-02-26T07:08:33;-0.70;77.00
18365;DHT22;9309;52.126;11.616;2023-02-26T07:11:00;-0.70;76.50
18365;DHT22;9309;52.126;11.616;2023-02-26T07:13:28;-0.70;76.80
18365;DHT22;9309;52.126;11.616;2023-02-26T07:15:55;-0.70;76.70
18365;DHT22;9309;52.126;11.616;2023-02-26T07:18:21;-0.60;76.30
18365;DHT22;9309;52.126;11.616;2023-02-26T07:20:48;-0.60;75.20
18365;DHT22;9309;52.126;11.616;2023-02-26T07:23:15;-0.60;76.40
18365;DHT22;9309;52.126;11.616;2023-02-26T07:25:42;-0.50;76.50
18365;DHT22;9309;52.126;11.616;2023-02-26T07:28:09;-0.50;75.50
18365;DHT22;9309;52.126;11.616;2023-02-26T07:30:37;-0.40;76.10
18365;DHT22;9309;52.126;11.616;2023-02-26T07:33:07;-0.40;75.30
18365;DHT22;9309;52.126;11.616;2023-02-26T07:35:34;-0.40;75.20
18365;DHT22;9309;52.126;11.616;2023-02-26T07:38:01;-0.40;75.30
18365;DHT22;9309;52.126;11.616;2023-02-26T07:40:28;-0.30;75.20
18365;DHT22;9309;52.126;11.616;2023-02-26T07:42:55;-0.10;75.00
18365;DHT22;9309;52.126;11.616;2023-02-26T07:45:22;-0.20;73.60
18365;DHT22;9309;52.126;11.616;2023-02-26T07:47:51;-0.20;73.60
18365;DHT22;9309;52.126;11.616;2023-02-26T07:50:18;-0.20;73.60
18365;DHT22;9309;52.126;11.616;2023-02-26T07:52:45;-0.10;72.70
18365;DHT22;9309;52.126;11.616;2023-02-26T07:55:12;0.00;71.90
18365;DHT22;9309;52.126;11.616;2023-02-26T07:57:39;0.00;71.60
18365;DHT22;9309;52.126;11.616;2023-02-26T08:00:07;0.00;71.00
18365;DHT22;9309;52.126;11.616;2023-02-26T08:02:37;0.20;70.80
18365;DHT22;9309;52.126;11.616;2023-02-26T08:05:06;0.20;70.60
18365;DHT22;9309;52.126;11.616;2023-02-26T08:07:33;0.20;70.10
18365;DHT22;9309;52.126;11.616;2023-02-26T08:09:59;0.40;70.30
18365;DHT22;9309;52.126;11.616;2023-02-26T08:12:26;0.60;68.30
18365;DHT22;9309;52.126;11.616;2023-02-26T08:14:52;0.80;66.70
18365;DHT22;9309;52.126;11.616;2023-02-26T08:17:19;1.00;65.20
18365;DHT22;9309;52.126;11.616;2023-02-26T08:19:46;1.10;65.10
18365;DHT22;9309;52.126;11.616;2023-02-26T08:22:14;1.30;64.60
18365;DHT22;9309;52.126;11.616;2023-02-26T08:24:41;1.70;64.20
18365;DHT22;9309;52.126;11.616;2023-02-26T08:27:07;1.70;62.40
18365;DHT22;9309;52.126;11.616;2023-02-26T08:29:34;1.70;63.00
18365;DHT22;9309;52.126;11.616;2023-02-26T08:32:00;1.60;62.50
18365;DHT22;9309;52.126;11.616;2023-02-26T08:34:27;2.30;63.60
18365;DHT22;9309;52.126;11.616;2023-02-26T08:36:54;4.40;57.00
18365;DHT22;9309;52.126;11.616;2023-02-26T08:39:22;6.40;50.30
18365;DHT22;9309;52.126;11.616;2023-02-26T08:41:49;8.20;47.10
18365;DHT22;9309;52.126;11.616;2023-02-26T08:44:15;8.60;42.30
18365;DHT22;9309;52.126;11.616;2023-02-26T08:46:42;7.90;43.50
18365;DHT22;9309;52.126;11.616;2023-02-26T08:49:09;8.10;43.00
18365;DHT22;9309;52.126;11.616;2023-02-26T08:51:35;9.10;41.90
18365;DHT22;9309;52.126;11.616;2023-02-26T08:54:02;9.30;40.00
18365;DHT22;9309;52.126;11.616;2023-02-26T08:56:30;8.40;41.60
18365;DHT22;9309;52.126;11.616;2023-02-26T08:58:57;8.00;43.20
18365;DHT22;9309;52.126;11.616;2023-02-26T09:01:23;8.00;42.40
18365;DHT22;9309;52.126;11.616;2023-02-26T09:03:50;8.40;43.30
18365;DHT22;9309;52.126;11.616;2023-02-26T09:06:17;8.80;40.90
18365;DHT22;9309;52.126;11.616;2023-02-26T09:08:43;8.90;39.90
18365;DHT22;9309;52.126;11.616;2023-02-26T09:11:10;8.30;40.70
18365;DHT22;9309;52.126;11.616;2023-02-26T09:13:38;7.40;43.00
18365;DHT22;9309;52.126;11.616;2023-02-26T09:16:05;7.60;43.20
18365;DHT22;9309;52.126;11.616;2023-02-26T09:18:32;7.60;43.10
18365;DHT22;9309;52.126;11.616;2023-02-26T09:20:59;8.10;41.20
18365;DHT22;9309;52.126;11.616;2023-02-26T09:23:27;7.80;41.40
18365;DHT22;9309;52.126;11.616;2023-02-26T09:25:54;7.40;43.80
18365;DHT22;9309;52.126;11.616;2023-02-26T09:28:22;8.50;41.50
18365;DHT22;9309;52.126;11.616;2023-02-26T09:30:51;8.50;41.40
18365;DHT22;9309;52.126;11.616;2023-02-26T09:33:19;7.40;43.30
18365;DHT22;9309;52.126;11.616;2023-02-26T09:35:47;5.60;47.30
18365;DHT22;9309;52.126;11.616;2023-02-26T09:38:14;4.60;50.00
18365;DHT22;9309;52.126;11.616;2023-02-26T09:40:44;3.90;51.90
18365;DHT22;9309;52.126;11.616;2023-02-26T09:43:42;3.40;54.70
18365;DHT22;9309;52.126;11.616;2023-02-26T09:46:23;3.40;55.40
18365;DHT22;9309;52.126;11.616;2023-02-26T09:48:56;3.50;54.80
18365;DHT22;9309;52.126;11.616;2023-02-26T09:51:27;3.00;56.40
18365;DHT22;9309;52.126;11.616;2023-02-26T09:53:55;3.20;56.10
18365;DHT22;9309;52.126;11.616;2023-02-26T09:56:25;3.40;55.30
18365;DHT22;9309;52.126;11.616;2023-02-26T09:58:55;3.10;55.90
18365;DHT22;9309;52.126;11.616;2023-02-26T10:01:28;3.60;54.40
18365;DHT22;9309;52.126;11.616;2023-02-26T10:04:07;4.50;52.60
18365;DHT22;9309;52.126;11.616;2023-02-26T10:06:41;5.30;50.30
18365;DHT22;9309;52.126;11.616;2023-02-26T10:09:27;5.50;48.70
18365;DHT22;9309;52.126;11.616;2023-02-26T10:12:02;5.90;47.50
18365;DHT22;9309;52.126;11.616;2023-02-26T10:14:34;7.80;44.30
18365;DHT22;9309;52.126;11.616;2023-02-26T10:17:17;9.90;38.80
18365;DHT22;9309;52.126;11.616;2023-02-26T10:19:49;10.70;35.70
18365;DHT22;9309;52.126;11.616;2023-02-26T10:22:23;9.30;37.10
18365;DHT22;9309;52.126;11.616;2023-02-26T10:24:54;7.90;40.30
18365;DHT22;9309;52.126;11.616;2023-02-26T10:27:32;8.00;40.80
18365;DHT22;9309;52.126;11.616;2023-02-26T10:30:06;8.60;40.00
18365;DHT22;9309;52.126;11.616;2023-02-26T10:32:42;9.30;38.90
18365;DHT22;9309;52.126;11.616;2023-02-26T10:35:14;9.50;38.00
18365;DHT22;9309;52.126;11.616;2023-02-26T10:37:47;9.00;39.20
18365;DHT22;9309;52.126;11.616;2023-02-26T10:40:17;8.60;40.20
18365;DHT22;9309;52.126;11.616;2023-02-26T10:42:47;7.90;41.90
18365;DHT22;9309;52.126;11.616;2023-02-26T10:45:36;7.60;42.30
18365;DHT22;9309;52.126;11.616;2023-02-26T10:48:17;8.40;41.00
18365;DHT22;9309;52.126;11.616;2023-02-26T10:50:50;9.60;38.20
18365;DHT22;9309;52.126;11.616;2023-02-26T10:53:17;9.00;37.90
18365;DHT22;9309;52.126;11.616;2023-02-26T10:55:46;8.00;39.20
18365;DHT22;9309;52.126;11.616;2023-02-26T10:58:16;8.00;40.50
18365;DHT22;9309;52.126;11.616;2023-02-26T11:00:45;9.60;37.90
18365;DHT22;9309;52.126;11.616;2023-02-26T11:03:17;8.60;38.80
18365;DHT22;9309;52.126;11.616;2023-02-26T11:05:44;8.10;40.90
18365;DHT22;9309;52.126;11.616;2023-02-26T11:08:15;9.00;40.50
18365;DHT22;9309;52.126;11.616;2023-02-26T11:10:44;8.60;39.50
18365;DHT22;9309;52.126;11.616;2023-02-26T11:13:12;8.20;40.10
18365;DHT22;9309;52.126;11.616;2023-02-26T11:15:39;7.80;40.30
18365;DHT22;9309;52.126;11.616;2023-02-26T11:18:05;8.10;39.40
18365;DHT22;9309;52.126;11.616;2023-02-26T11:20:40;8.50;37.70
18365;DHT22;9309;52.126;11.616;2023-02-26T11:23:10;10.50;36.20
18365;DHT22;9309;52.126;11.616;2023-02-26T11:25:37;11.30;35.80
18365;DHT22;9309;52.126;11.616;2023-02-26T11:28:05;15.10;29.80
18365;DHT22;9309;52.126;11.616;2023-02-26T11:30:34;15.80;27.80
18365;DHT22;9309;52.126;11.616;2023-02-26T11:33:03;14.50;28.80
18365;DHT22;9309;52.126;11.616;2023-02-26T11:35:31;11.60;31.40
18365;DHT22;9309;52.126;11.616;2023-02-26T11:38:00;11.90;32.30
18365;DHT22;9309;52.126;11.616;2023-02-26T11:40:37;11.30;32.40
18365;DHT22;9309;52.126;11.616;2023-02-26T11:43:04;9.70;34.50
18365;DHT22;9309;52.126;11.616;2023-02-26T11:45:43;10.60;34.10
18365;DHT22;9309;52.126;11.616;2023-02-26T11:48:12;9.90;34.30
18365;DHT22;9309;52.126;11.616;2023-02-26T11:50:39;11.10;34.20
18365;DHT22;9309;52.126;11.616;2023-02-26T11:53:15;13.10;31.10
18365;DHT22;9309;52.126;11.616;2023-02-26T11:55:43;12.10;30.80
18365;DHT22;9309;52.126;11.616;2023-02-26T11:58:14;9.40;34.20
18365;DHT22;9309;52.126;11.616;2023-02-26T12:00:41;10.00;34.80
18365;DHT22;9309;52.126;11.616;2023-02-26T12:03:15;9.60;34.90
18365;DHT22;9309;52.126;11.616;2023-02-26T12:05:42;11.40;32.70
18365;DHT22;9309;52.126;11.616;2023-02-26T12:08:12;12.90;30.20
18365;DHT22;9309;52.126;11.616;2023-02-26T12:10:42;14.10;27.70
18365;DHT22;9309;52.126;11.616;2023-02-26T12:13:11;16.20;26.50
18365;DHT22;9309;52.126;11.616;2023-02-26T12:15:43;15.70;25.70
18365;DHT22;9309;52.126;11.616;2023-02-26T12:18:21;16.70;25.20
18365;DHT22;9309;52.126;11.616;2023-02-26T12:20:53;17.00;24.70
18365;DHT22;9309;52.126;11.616;2023-02-26T12:23:27;17.20;24.70
18365;DHT22;9309;52.126;11.616;2023-02-26T12:26:12;16.00;26.00
18365;DHT22;9309;52.126;11.616;2023-02-26T12:28:51;19.90;21.90
18365;DHT22;9309;52.126;11.616;2023-02-26T12:31:23;19.20;21.80
18365;DHT22;9309;52.126;11.616;2023-02-26T12:33:55;15.90;23.30
18365;DHT22;9309;52.126;11.616;2023-02-26T12:36:28;15.60;25.90
18365;DHT22;9309;52.126;11.616;2023-02-26T12:39:06;18.20;22.40
18365;DHT22;9309;52.126;11.616;2023-02-26T12:41:56;17.30;21.90
18365;DHT22;9309;52.126;11.616;2023-02-26T12:44:42;14.70;24.40
18365;DHT22;9309;52.126;11.616;2023-02-26T12:47:30;14.00;25.70
18365;DHT22;9309;52.126;11.616;2023-02-26T12:50:15;12.70;27.00
18365;DHT22;9309;52.126;11.616;2023-02-26T12:55:52;9.00;30.80
18365;DHT22;9309;52.126;11.616;2023-02-26T12:58:48;7.00;32.90
18365;DHT22;9309;52.126;11.616;2023-02-26T13:01:29;6.30;35.50
18365;DHT22;9309;52.126;11.616;2023-02-26T13:04:23;7.40;34.80
18365;DHT22;9309;52.126;11.616;2023-02-26T13:07:04;10.90;30.70
18365;DHT22;9309;52.126;11.616;2023-02-26T13:09:43;12.20;27.80
18365;DHT22;9309;52.126;11.616;2023-02-26T13:12:22;11.50;28.60
18365;DHT22;9309;52.126;11.616;2023-02-26T13:15:02;8.80;31.10
18365;DHT22;9309;52.126;11.616;2023-02-26T13:17:36;9.80;30.70
18365;DHT22;9309;52.126;11.616;2023-02-26T13:20:11;9.50;29.00
18365;DHT22;9309;52.126;11.616;2023-02-26T13:22:43;8.10;30.30
18365;DHT22;9309;52.126;11.616;2023-02-26T13:25:17;8.90;31.70
18365;DHT22;9309;52.126;11.616;2023-02-26T13:27:45;9.30;28.70
18365;DHT22;9309;52.126;11.616;2023-02-26T13:30:21;10.20;28.20
18365;DHT22;9309;52.126;11.616;2023-02-26T13:32:54;10.90;27.00
18365;DHT22;9309;52.126;11.616;2023-02-26T13:35:25;12.80;25.60
18365;DHT22;9309;52.126;11.616;2023-02-26T13:37:55;13.10;24.60
18365;DHT22;9309;52.126;11.616;2023-02-26T13:40:41;13.90;24.90
18365;DHT22;9309;52.126;11.616;2023-02-26T13:43:18;14.80;23.50
18365;DHT22;9309;52.126;11.616;2023-02-26T13:46:01;14.30;24.20
18365;DHT22;9309;52.126;11.616;2023-02-26T13:48:39;14.90;23.50
18365;DHT22;9309;52.126;11.616;2023-02-26T13:51:11;16.60;22.90
18365;DHT22;9309;52.126;11.616;2023-02-26T13:53:51;16.00;22.30
18365;DHT22;9309;52.126;11.616;2023-02-26T13:56:21;15.60;22.80
18365;DHT22;9309;52.126;11.616;2023-02-26T13:58:52;16.30;22.80
18365;DHT22;9309;52.126;11.616;2023-02-26T14:01:26;18.10;20.70
18365;DHT22;9309;52.126;11.616;2023-02-26T14:04:06;16.10;21.60
18365;DHT22;9309;52.126;11.616;2023-02-26T14:06:40;18.80;20.60
18365;DHT22;9309;52.126;11.616;2023-02-26T14:09:30;18.70;20.30
18365;DHT22;9309;52.126;11.616;2023-02-26T14:12:01;20.70;18.20
18365;DHT22;9309;52.126;11.616;2023-02-26T14:14:36;16.90;20.30
18365;DHT22;9309;52.126;11.616;2023-02-26T14:17:29;16.10;22.50
18365;DHT22;9309;52.126;11.616;2023-02-26T14:20:24;14.50;23.30
18365;DHT22;9309;52.126;11.616;2023-02-26T14:22:58;11.90;24.40
18365;DHT22;9309;52.126;11.616;2023-02-26T14:25:37;10.00;27.70
18365;DHT22;9309;52.126;11.616;2023-02-26T14:31:17;9.90;28.00
18365;DHT22;9309;52.126;11.616;2023-02-26T14:33:59;8.00;29.10
18365;DHT22;9309;52.126;11.616;2023-02-26T14:36:34;7.10;30.90
18365;DHT22;9309;52.126;11.616;2023-02-26T14:39:04;7.70;31.10
18365;DHT22;9309;52.126;11.616;2023-02-26T14:41:36;8.10;30.30
18365;DHT22;9309;52.126;11.616;2023-02-26T14:44:11;7.80;30.30
18365;DHT22;9309;52.126;11.616;2023-02-26T14:46:39;7.80;30.50
18365;DHT22;9309;52.126;11.616;2023-02-26T14:49:16;7.30;30.60
18365;DHT22;9309;52.126;11.616;2023-02-26T14:51:53;6.40;33.20
18365;DHT22;9309;52.126;11.616;2023-02-26T14:54:53;6.00;33.60
18365;DHT22;9309;52.126;11.616;2023-02-26T14:57:32;5.80;34.90
18365;DHT22;9309;52.126;11.616;2023-02-26T15:00:11;6.20;34.30
18365;DHT22;9309;52.126;11.616;2023-02-26T15:02:55;6.90;32.90
18365;DHT22;9309;52.126;11.616;2023-02-26T15:05:42;6.80;33.70
18365;DHT22;9309;52.126;11.616;2023-02-26T15:08:21;7.10;33.60
18365;DHT22;9309;52.126;11.616;2023-02-26T15:11:17;6.80;34.20
18365;DHT22;9309;52.126;11.616;2023-02-26T15:14:10;7.00;34.20
18365;DHT22;9309;52.126;11.616;2023-02-26T15:16:49;7.10;34.20
18365;DHT22;9309;52.126;11.616;2023-02-26T15:19:28;6.50;34.10
18365;DHT22;9309;52.126;11.616;2023-02-26T15:22:10;6.40;34.30
18365;DHT22;9309;52.126;11.616;2023-02-26T15:24:40;6.00;35.30
18365;DHT22;9309;52.126;11.616;2023-02-26T15:27:10;5.40;36.80
18365;DHT22;9309;52.126;11.616;2023-02-26T15:29:40;5.50;37.00
18365;DHT22;9309;52.126;11.616;2023-02-26T15:32:15;5.50;37.70
18365;DHT22;9309;52.126;11.616;2023-02-26T15:34:45;5.50;37.80
18365;DHT22;9309;52.126;11.616;2023-02-26T15:37:20;5.20;38.40
18365;DHT22;9309;52.126;11.616;2023-02-26T15:39:48;5.00;39.00
18365;DHT22;9309;52.126;11.616;2023-02-26T15:42:15;4.90;40.10
18365;DHT22;9309;52.126;11.616;2023-02-26T15:44:44;4.80;40.00
18365;DHT22;9309;52.126;11.616;2023-02-26T15:47:11;4.40;41.00
18365;DHT22;9309;52.126;11.616;2023-02-26T15:49:43;4.30;41.40
18365;DHT22;9309;52.126;11.616;2023-02-26T15:52:12;4.20;42.30
18365;DHT22;9309;52.126;11.616;2023-02-26T15:54:43;4.30;41.50
18365;DHT22;9309;52.126;11.616;2023-02-26T15:57:11;4.20;42.40
18365;DHT22;9309;52.126;11.616;2023-02-26T15:59:42;4.20;42.90
18365;DHT22;9309;52.126;11.616;2023-02-26T16:02:10;4.30;43.00
18365;DHT22;9309;52.126;11.616;2023-02-26T16:04:38;4.40;42.40
18365;DHT22;9309;52.126;11.616;2023-02-26T16:07:04;4.40;42.70
18365;DHT22;9309;52.126;11.616;2023-02-26T16:09:35;4.30;43.50
18365;DHT22;9309;52.126;11.616;2023-02-26T16:12:07;4.10;43.70
18365;DHT22;9309;52.126;11.616;2023-02-26T16:14:37;4.00;43.90
18365;DHT22;9309;52.126;11.616;2023-02-26T16:17:07;3.90;44.40